Onweer radar Meer informatie blitzortung!


Regen radar Meer informatie rain snow radar



METAR rapporten vliegvelden

   
EHRD - Rotterdam
Gewijzigd: 31-05-2020 21:25
Gedeeltelijk bewolkt  
Gedeeltelijk bewolkt  
   Wind: Oosten 7 km/h
Wind: Oosten 7 km/h
Temperatuur: 19°C
Dauwpunt: 6°C
Vochtigheid: 43%
Barometer: 1022 hPa
Bewolking: Partly Cloudy
Zicht: meer dan 10 km
Bewolking: Gedeeltelijk bewolkt ft
EHRD 311925Z AUTO 08007KT 040V110 9999 NSC 19/06 Q1022 NOSIG
EBAW - Antwerpen
Gewijzigd: 31-05-2020 21:20
Helder  
Helder  
   Wind: ONO 7 km/h
Wind: ONO 7 km/h
Temperatuur: 20°C
Dauwpunt: 5°C
Vochtigheid: 38%
Barometer: 1021 hPa
Zicht: meer dan 10 km
Bewolking: Helder ft
EBAW 311920Z AUTO 07007KT CAVOK 20/05 Q1021
EHAM - Amsterdam
Gewijzigd: 31-05-2020 21:25
Helder  
Helder  
   Wind: NO 14 km/h
Wind: NO 14 km/h
Temperatuur: 18°C
Dauwpunt: 10°C
Vochtigheid: 60%
Barometer: 1022 hPa
Zicht: meer dan 10 km
Bewolking: Helder ft
EHAM 311925Z 05014KT 020V080 CAVOK 18/10 Q1022 NOSIG
EHEH - Eindhoven
Gewijzigd: 31-05-2020 21:25
Bewolking  
Bewolking  
   Wind: ONO 8 km/h
Wind: ONO 8 km/h
Temperatuur: 19°C
Dauwpunt: 5°C
Vochtigheid: 40%
Barometer: 1021 hPa
Bewolking: Overcast
Zicht: meer dan 10 km
Bewolking: Bewolking 34000 ft
EHEH 311925Z AUTO 07008KT 040V110 9999 OVC340 19/05 Q1021 BLU
  

Script ontwikkeld door  Saratoga-weather.org Aangepast voor de template door  Weerstation Leuven

U vindt ons ook hier:

Het Weer Aktueel

Apparatuur in gebruik:

Weerstation
Davis VP2

Weerprogramma
Cumulus

Weercomputer
Pipo X9 with Windows 10

Davis VP2

Cumulus

Pipo X9 with Windows 10